Time;durP1;ratioP1;P1;durP2;ratioP2;P2;SDS_P1;SDS_P2;PMS_P1;PMS_P2;Temp;Humidity;BMP_temperature;BMP_pressure;BME280_temperature;BME280_humidity;BME280_pressure;Samples;Min_cycle;Max_cycle;Signal;HPM_P1;HPM_P2
2023/08/30 00:02:41;;;;;;;18.42;14.35;;;;;;;-144.30;84.11;84354.91;5069557;28;20211;-56
2023/08/30 00:05:28;;;;;;;19.83;14.23;;;;;;;-144.30;83.41;84364.84;5069620;28;20291;-55
2023/08/30 00:08:29;;;;;;;16.60;14.75;;;;;;;-144.30;83.11;84374.78;5070271;28;20192;-54
2023/08/30 00:11:56;;;;;;;20.35;15.20;;;;;;;-144.30;83.43;84342.97;5069448;28;20191;-55
2023/08/30 00:14:32;;;;;;;19.73;14.48;;;;;;;-144.30;83.31;84388.69;5069373;28;20236;-52
2023/08/30 00:17:12;;;;;;;23.40;15.75;;;;;;;-144.30;83.12;84394.66;5067641;28;20648;-51
2023/08/30 00:29:36;;;;;;;22.90;17.77;;;;;;;-144.30;81.88;84390.69;5069656;28;20216;-52
2023/08/30 00:35:59;;;;;;;;;;;;;;;;;;;;;
2023/08/30 00:48:15;;;;;;;16.63;13.07;;;;;;;-144.30;81.44;84450.31;5067268;28;20703;-52
2023/08/30 00:57:20;;;;;;;14.43;12.38;;;;;;;-144.30;81.14;84486.06;5071386;28;20207;-55
2023/08/30 01:03:42;;;;;;;17.10;12.52;;;;;;;-144.30;81.62;84501.97;5070611;28;20203;-51
2023/08/30 01:06:57;;;;;;;16.55;13.23;;;;;;;-144.30;82.44;84509.94;5069115;28;20207;-53
2023/08/30 01:23:14;;;;;;;14.10;12.70;;;;;;;-144.30;81.37;84539.75;5112860;28;20191;-55
2023/08/30 01:44:39;;;;;;;13.63;11.98;;;;;;;-144.30;80.80;84527.81;5109265;28;20277;-55
2023/08/30 01:50:50;;;;;;;14.43;11.82;;;;;;;-144.30;80.70;84545.69;5109593;28;20684;-55
2023/08/30 02:00:23;;;;;;;15.38;11.95;;;;;;;-144.30;81.51;84573.53;5109818;28;20244;-55
2023/08/30 02:03:46;;;;;;;12.88;11.57;;;;;;;-144.30;81.65;84565.56;5112161;28;20202;-51
2023/08/30 02:13:26;;;;;;;13.35;12.05;;;;;;;-144.30;80.79;84537.75;5109760;28;20198;-52
2023/08/30 02:22:33;;;;;;;14.68;12.88;;;;;;;-144.30;80.89;84591.41;5111026;28;20198;-55
2023/08/30 02:28:35;;;;;;;16.15;12.43;;;;;;;-144.30;80.94;84549.69;5111188;28;20251;-53
2023/08/30 02:31:30;;;;;;;13.93;12.40;;;;;;;-144.30;80.77;84545.69;5111265;28;20245;-52
2023/08/30 02:34:37;;;;;;;16.30;13.23;;;;;;;-144.30;80.75;84545.69;5111211;28;20198;-51
2023/08/30 02:40:51;;;;;;;15.15;12.00;;;;;;;-144.30;80.89;84621.22;5110278;28;20625;-55
2023/08/30 02:43:49;;;;;;;13.60;12.27;;;;;;;-144.30;81.45;84583.47;5111356;28;20291;-55
2023/08/30 02:47:08;;;;;;;13.82;11.73;;;;;;;-144.30;81.34;84575.50;5111187;28;20191;-52
2023/08/30 02:49:54;;;;;;;15.90;12.25;;;;;;;-144.30;81.77;84631.16;5090787;28;20219;-52
2023/08/30 02:53:08;;;;;;;13.20;11.88;;;;;;;-144.30;81.71;84591.41;5088373;28;20285;-57
2023/08/30 03:02:21;;;;;;;15.07;11.77;;;;;;;-144.30;81.74;84595.38;5090223;28;20218;-49
2023/08/30 03:12:02;;;;;;;;;;;;;;;;;;;;;
2023/08/30 03:15:14;;;;;;;20.92;12.30;;;;;;;-144.30;82.06;84605.31;5089923;28;20206;-51
2023/08/30 03:18:03;;;;;;;14.13;12.02;;;;;;;-144.30;82.70;84599.34;5098426;28;20212;-51
2023/08/30 03:20:48;;;;;;;16.23;12.70;;;;;;;-144.30;82.30;84637.13;5109597;28;20651;-50
2023/08/30 03:23:23;;;;;;;22.15;12.77;;;;;;;-144.30;82.33;84585.44;5110835;28;20755;-51
2023/08/30 03:25:55;;;;;;;15.98;12.18;;;;;;;-144.30;83.05;84613.28;5110732;28;20194;-51
2023/08/30 03:28:27;;;;;;;17.63;12.05;;;;;;;-144.30;82.95;84629.19;5110757;28;20250;-55
2023/08/30 03:31:16;;;;;;;17.92;12.73;;;;;;;-144.30;83.16;84633.16;5110301;28;20215;-51
2023/08/30 03:33:53;;;;;;;18.38;12.48;;;;;;;-144.30;82.90;84619.22;5110491;28;20290;-51
2023/08/30 03:36:30;;;;;;;17.52;12.15;;;;;;;-144.30;83.52;84641.09;5108971;28;20255;-52
2023/08/30 03:39:09;;;;;;;14.93;12.38;;;;;;;-144.30;83.44;84666.94;5110449;28;20742;-51
2023/08/30 03:42:05;;;;;;;14.52;12.00;;;;;;;-144.30;82.65;84637.13;5107829;28;20197;-52
2023/08/30 03:44:41;;;;;;;22.58;17.80;;;;;;;-144.30;80.89;84537.75;5110123;28;20247;-50
2023/08/30 03:47:31;;;;;;;20.25;14.43;;;;;;;-144.30;81.32;84486.06;5108013;28;20198;-51
2023/08/30 03:50:22;;;;;;;25.05;15.88;;;;;;;-144.30;80.63;84617.25;5102784;28;20222;-52
2023/08/30 03:53:19;;;;;;;16.45;12.90;;;;;;;-144.30;80.82;84613.28;5101384;28;20203;-54
2023/08/30 03:56:14;;;;;;;12.63;11.52;;;;;;;-144.30;80.67;84609.31;5087857;28;20697;-55
2023/08/30 03:59:07;;;;;;;13.90;12.18;;;;;;;-144.30;80.75;84617.25;5106477;28;20199;-51
2023/08/30 04:01:53;;;;;;;14.48;11.63;;;;;;;-144.30;80.48;84611.28;5109118;28;20186;-50
2023/08/30 04:04:42;;;;;;;19.33;12.65;;;;;;;-144.30;79.90;84573.53;5109117;28;20194;-51
2023/08/30 04:07:33;;;;;;;23.92;14.60;;;;;;;-144.30;80.08;84517.88;5109849;28;20198;-51
2023/08/30 04:10:17;;;;;;;20.95;15.35;;;;;;;-144.30;79.72;84581.47;5108511;28;20594;-53
2023/08/30 04:13:02;;;;;;;22.15;12.55;;;;;;;-144.30;79.99;84555.63;5109721;28;20221;-50
2023/08/30 04:15:51;;;;;;;27.73;19.70;;;;;;;-144.30;78.40;84565.56;5110219;28;20199;-50
2023/08/30 04:21:25;;;;;;;20.40;18.02;;;;;;;-144.30;75.40;84466.19;5109632;28;20200;-53
2023/08/30 04:24:24;;;;;;;26.08;16.83;;;;;;;-144.30;74.48;84452.28;5108748;28;20198;-54
2023/08/30 04:27:32;;;;;;;;;;;;;;;;;;;;;
2023/08/30 04:30:21;;;;;;;16.02;11.32;;;;;;;-144.30;71.16;84301.25;5110120;28;20198;-54
2023/08/30 04:33:26;;;;;;;11.55;10.35;;;;;;;-144.30;67.70;84108.50;5109505;28;20194;-54
2023/08/30 04:36:09;;;;;;;26.27;18.50;;;;;;;-144.30;64.31;84021.06;5113102;28;20203;-54
2023/08/30 04:38:57;;;;;;;16.83;13.05;;;;;;;-144.30;63.49;83917.72;5112896;28;20190;-50
2023/08/30 04:41:56;;;;;;;15.32;12.55;;;;;;;-144.30;62.50;83876.00;5113838;28;20670;-50
2023/08/30 04:50:40;;;;;;;14.93;11.50;;;;;;;-144.30;58.57;83595.81;5110673;28;20241;-50
2023/08/30 04:53:39;;;;;;;18.73;15.10;;;;;;;-144.30;57.72;83540.19;5113360;28;20248;-49
2023/08/30 04:56:55;;;;;;;20.23;13.85;;;;;;;-144.30;56.58;83486.56;5113470;28;20313;-50
2023/08/30 05:02:43;;;;;;;16.55;12.40;;;;;;;-144.30;54.43;83303.75;5103366;28;20303;-50
2023/08/30 05:05:37;;;;;;;13.32;11.68;;;;;;;-144.30;53.46;83232.25;5103979;28;20694;-54
2023/08/30 05:08:24;;;;;;;14.55;12.93;;;;;;;-144.30;52.15;83184.56;5103715;28;20238;-54
2023/08/30 05:11:02;;;;;;;42.38;28.55;;;;;;;-144.30;53.07;83325.63;5097932;28;20223;-54
2023/08/30 05:14:13;;;;;;;17.42;11.68;;;;;;;-144.30;54.59;83472.66;5100134;28;20195;-54
2023/08/30 05:17:23;;;;;;;15.02;11.80;;;;;;;-144.30;57.16;83617.69;5099571;28;20194;-53
2023/08/30 05:20:03;;;;;;;16.90;12.40;;;;;;;-144.30;59.64;83671.34;5100956;28;20191;-54
2023/08/30 05:23:03;;;;;;;13.68;12.18;;;;;;;-144.30;59.35;83653.44;5097480;28;20272;-54
2023/08/30 05:28:53;;;;;;;15.88;12.18;;;;;;;-144.30;53.60;83194.50;5100124;28;20191;-54
2023/08/30 05:31:21;;;;;;;15.13;13.57;;;;;;;-144.30;51.62;83091.19;5100497;28;20614;-54
2023/08/30 05:33:53;;;;;;;23.50;13.75;;;;;;;-144.30;50.57;82960.06;5103426;28;20274;-54
2023/08/30 05:36:22;;;;;;;16.08;14.27;;;;;;;-144.30;48.63;82860.75;5102861;28;20655;-50
2023/08/30 05:38:51;;;;;;;10.73;9.70;;;;;;;-144.30;47.18;82695.88;5100668;28;20287;-54
2023/08/30 05:41:19;;;;;;;11.45;10.25;;;;;;;-144.30;45.63;82566.78;5102063;28;20198;-51
2023/08/30 05:43:50;;;;;;;15.65;14.07;;;;;;;-144.30;45.17;82542.94;5103227;28;20209;-50
2023/08/30 05:46:23;;;;;;;18.45;10.25;;;;;;;-144.30;44.07;82455.53;5102242;28;20195;-53
2023/08/30 05:48:55;;;;;;;14.45;10.75;;;;;;;-144.30;43.69;82380.06;5101097;28;20201;-53
2023/08/30 05:51:29;;;;;;;14.93;9.90;;;;;;;-144.30;43.32;82360.19;5100117;28;20567;-55
2023/08/30 05:54:04;;;;;;;13.77;10.13;;;;;;;-144.30;43.86;82527.03;5101419;28;20671;-53
2023/08/30 05:56:35;;;;;;;16.27;9.63;;;;;;;-144.30;46.46;82864.72;5100900;28;20781;-49
2023/08/30 05:59:04;;;;;;;22.17;9.68;;;;;;;-144.30;47.89;82975.97;5100674;28;20554;-48
2023/08/30 06:01:35;;;;;;;12.88;11.57;;;;;;;-144.30;48.10;82950.16;5101363;28;20219;-49
2023/08/30 06:04:10;;;;;;;11.07;10.05;;;;;;;-144.30;48.07;82987.88;5101692;28;20203;-50
2023/08/30 06:06:44;;;;;;;12.45;11.25;;;;;;;-144.30;50.31;83208.41;5101917;28;20639;-49
2023/08/30 06:09:16;;;;;;;13.15;9.90;;;;;;;-144.30;51.67;83379.25;5099973;28;20640;-54
2023/08/30 06:11:48;;;;;;;16.95;11.68;;;;;;;-144.30;54.54;83560.06;5101231;28;20288;-54
2023/08/30 06:14:17;;;;;;;16.70;10.85;;;;;;;-144.30;56.27;83673.31;5101514;28;20192;-55
2023/08/30 06:16:50;;;;;;;12.77;11.45;;;;;;;-144.30;58.57;83786.56;5100956;28;20209;-54
2023/08/30 06:19:22;;;;;;;13.60;10.93;;;;;;;-144.30;60.67;83907.78;5100193;28;20278;-50
2023/08/30 06:21:52;;;;;;;17.15;11.50;;;;;;;-144.30;62.56;83961.44;5102617;28;20195;-49
2023/08/30 06:24:23;;;;;;;13.95;12.48;;;;;;;-144.30;63.22;83979.31;5101923;28;20691;-50
2023/08/30 06:26:53;;;;;;;14.80;11.57;;;;;;;-144.30;61.96;83826.31;5100572;28;20679;-50
2023/08/30 06:29:24;;;;;;;14.25;12.18;;;;;;;-144.30;59.67;83695.19;5108867;28;20206;-49
2023/08/30 06:31:56;;;;;;;13.52;12.13;;;;;;;-144.30;55.70;83369.34;5111996;28;20218;-50
2023/08/30 06:34:30;;;;;;;13.98;10.57;;;;;;;-144.30;51.22;83043.50;5112099;28;20230;-54
2023/08/30 06:37:04;;;;;;;11.65;10.60;;;;;;;-144.30;47.94;82676.03;5111992;28;20225;-50
2023/08/30 06:39:39;;;;;;;17.02;11.32;;;;;;;-144.30;44.67;82425.75;5111830;28;20294;-54
2023/08/30 06:42:10;;;;;;;15.73;11.50;;;;;;;-144.30;42.68;82102.00;5111360;28;20570;-49
2023/08/30 06:44:44;;;;;;;13.43;10.50;;;;;;;-144.30;41.09;82042.41;5109919;28;20734;-54
2023/08/30 06:47:15;;;;;;;11.50;10.30;;;;;;;-144.30;40.50;81899.44;5111163;28;20198;-54
2023/08/30 06:49:48;;;;;;;16.75;10.45;;;;;;;-144.30;39.47;81871.63;5110920;28;20202;-50
2023/08/30 06:52:18;;;;;;;12.32;9.60;;;;;;;-144.30;38.66;81762.41;5092150;28;20300;-49
2023/08/30 06:54:48;;;;;;;10.70;9.55;;;;;;;-144.30;38.37;81633.31;5100895;28;20252;-54
2023/08/30 06:57:18;;;;;;;16.65;9.73;;;;;;;-144.30;37.59;81589.66;5102906;28;20857;-54
2023/08/30 06:59:48;;;;;;;10.80;9.90;;;;;;;-144.30;37.57;81629.34;5102863;28;20209;-54
2023/08/30 07:02:15;;;;;;;13.27;9.07;;;;;;;-144.30;36.38;81418.88;5089774;28;20198;-54
2023/08/30 07:04:48;;;;;;;14.10;10.00;;;;;;;-144.30;35.69;81307.69;5102929;28;20503;-54
2023/08/30 07:07:20;;;;;;;13.45;9.88;;;;;;;-144.30;35.07;81194.50;5103630;28;20320;-54
2023/08/30 07:09:48;;;;;;;10.40;9.25;;;;;;;-144.30;35.10;81132.94;5110331;28;20268;-54
2023/08/30 07:12:17;;;;;;;12.68;10.20;;;;;;;-144.30;34.43;81015.81;5110831;28;20210;-49
2023/08/30 07:14:45;;;;;;;10.65;9.63;;;;;;;-144.30;33.94;80928.44;5110963;28;20194;-50
2023/08/30 07:17:13;;;;;;;14.48;10.05;;;;;;;-144.30;35.06;81283.84;5110624;28;20576;-50
2023/08/30 07:19:43;;;;;;;10.52;9.50;;;;;;;-144.30;36.05;81367.25;5110477;28;20204;-49
2023/08/30 07:22:19;;;;;;;22.23;11.70;;;;;;;-144.30;35.72;81299.72;5109837;28;20233;-54
2023/08/30 07:24:48;;;;;;;15.60;10.80;;;;;;;-144.30;35.17;81079.34;5110638;28;20561;-54
2023/08/30 07:27:21;;;;;;;12.15;10.50;;;;;;;-144.30;34.34;80974.13;5108867;28;20193;-55
2023/08/30 07:29:51;;;;;;;14.55;11.13;;;;;;;-144.30;33.82;80767.63;5110274;28;20190;-55
2023/08/30 07:32:23;;;;;;;13.57;10.60;;;;;;;-144.30;33.14;80660.44;5110433;28;20716;-49
2023/08/30 07:34:53;;;;;;;13.07;9.50;;;;;;;-144.30;32.87;80682.28;5110121;28;20248;-50
2023/08/30 07:37:25;;;;;;;11.85;9.75;;;;;;;-144.30;33.44;80823.22;5094984;28;20224;-50
2023/08/30 07:39:55;;;;;;;11.57;10.43;;;;;;;-144.30;33.63;80942.34;5089920;28;20290;-49
2023/08/30 07:42:26;;;;;;;11.88;10.73;;;;;;;-144.30;33.18;80751.75;5090033;28;20257;-50
2023/08/30 07:44:54;;;;;;;15.80;9.50;;;;;;;-144.30;32.74;80785.50;5089648;28;20197;-50
2023/08/30 07:47:25;;;;;;;12.48;9.25;;;;;;;-144.30;32.63;80626.69;5089760;28;20664;-50
2023/08/30 07:49:57;;;;;;;9.88;8.93;;;;;;;-144.30;32.29;80666.41;5089626;28;20190;-49
2023/08/30 07:52:29;;;;;;;14.27;8.85;;;;;;;-144.30;31.70;80533.38;5088931;28;20706;-55
2023/08/30 07:55:01;;;;;;;15.13;9.77;;;;;;;-144.30;31.50;80432.16;5089779;28;20657;-55
2023/08/30 07:57:32;;;;;;;15.30;10.00;;;;;;;-144.30;30.74;80080.81;5089478;28;20286;-54
2023/08/30 08:00:05;;;;;;;12.70;11.02;;;;;;;-144.30;30.10;80009.34;5089351;28;20586;-54
2023/08/30 08:02:35;;;;;;;11.52;10.35;;;;;;;-144.30;29.53;79838.66;5089648;28;20197;-55
2023/08/30 08:05:03;;;;;;;12.00;10.65;;;;;;;-144.30;30.21;79981.56;5087783;28;20209;-54
2023/08/30 08:07:35;;;;;;;14.38;11.75;;;;;;;-144.30;30.71;80219.75;5105965;28;20205;-54
2023/08/30 08:10:06;;;;;;;11.55;9.43;;;;;;;-144.30;30.84;80289.22;5109610;28;20240;-55
2023/08/30 08:12:38;;;;;;;10.38;9.32;;;;;;;-144.30;30.45;80094.69;5110025;28;20588;-54
2023/08/30 08:15:10;;;;;;;10.20;9.20;;;;;;;-144.30;29.67;79890.25;5108844;28;20227;-55
2023/08/30 08:17:43;;;;;;;10.88;9.25;;;;;;;-144.30;30.06;80035.16;5110139;28;20266;-54
2023/08/30 08:20:14;;;;;;;12.35;9.75;;;;;;;-144.30;29.70;79773.16;5109278;28;20201;-55
2023/08/30 08:22:44;;;;;;;14.00;9.50;;;;;;;-144.30;29.62;79769.19;5108649;28;20194;-54
2023/08/30 08:25:15;;;;;;;10.15;9.25;;;;;;;-144.30;30.56;80291.22;5109786;28;20325;-54
2023/08/30 08:27:45;;;;;;;11.82;10.43;;;;;;;-144.30;31.40;80545.28;5109572;28;20201;-55
2023/08/30 08:30:16;;;;;;;12.95;10.07;;;;;;;-144.30;32.80;80978.09;5108026;28;20198;-55
2023/08/30 08:32:50;;;;;;;13.20;10.45;;;;;;;-144.30;32.69;80811.31;5109685;28;20308;-55
2023/08/30 08:35:19;;;;;;;13.60;9.43;;;;;;;-144.30;33.07;80835.13;5108853;28;20670;-55
2023/08/30 08:37:58;;;;;;;11.07;9.90;;;;;;;-144.30;32.63;80797.41;5108222;28;20213;-54
2023/08/30 08:41:12;;;;;;;9.85;9.10;;;;;;;-144.30;31.51;80469.88;5108477;28;20204;-51
2023/08/30 08:47:36;;;;;;;11.40;9.43;;;;;;;-144.30;30.11;79955.75;5108076;28;20594;-51
2023/08/30 08:50:34;;;;;;;11.00;9.43;;;;;;;-144.30;29.51;80015.31;5109464;28;20190;-55
2023/08/30 08:53:50;;;;;;;10.30;8.90;;;;;;;-144.30;30.13;80092.72;5109495;28;20308;-55
2023/08/30 08:56:53;;;;;;;11.23;9.52;;;;;;;-144.30;30.62;80156.22;5108324;28;20200;-54
2023/08/30 09:06:04;;;;;;;;;;;;;;;;;;;;;
2023/08/30 09:23:24;;;;;;;9.88;8.98;;;;;;;-144.30;28.86;80017.28;5068965;28;20196;-49
2023/08/30 09:26:14;;;;;;;11.52;8.38;;;;;;;-144.30;29.97;80362.66;5072032;28;20217;-51
2023/08/30 09:29:36;;;;;;;10.82;9.27;;;;;;;-144.30;29.67;80384.50;5072110;28;20195;-50
2023/08/30 09:38:25;;;;;;;;;;;;;;;;;;;;;
2023/08/30 09:44:56;;;;;;;21.77;11.00;;;;;;;-144.30;28.30;79447.69;5071649;28;20282;-51
2023/08/30 09:48:07;;;;;;;14.45;9.43;;;;;;;-144.30;28.17;79783.09;5072014;28;20644;-50
2023/08/30 09:54:07;;;;;;;15.65;10.40;;;;;;;-144.30;28.47;79910.09;5070482;28;20198;-50
2023/08/30 09:56:38;;;;;;;10.82;9.77;;;;;;;-144.30;28.63;80021.25;5071738;28;20202;-49
2023/08/30 09:59:07;;;;;;;10.48;9.52;;;;;;;-144.30;28.39;79989.50;5071768;28;20191;-51
2023/08/30 10:01:38;;;;;;;10.65;9.10;;;;;;;-144.30;28.88;80231.66;5071826;28;20203;-50
2023/08/30 10:04:13;;;;;;;9.05;8.32;;;;;;;-144.30;29.70;80604.84;5071672;28;20235;-51
2023/08/30 10:06:46;;;;;;;22.70;15.57;;;;;;;-144.30;31.15;80950.28;5071496;28;20199;-50
2023/08/30 10:09:25;;;;;;;14.07;10.23;;;;;;;-144.30;32.72;81387.09;5074258;28;20200;-49
2023/08/30 10:14:56;;;;;;;16.15;9.88;;;;;;;-144.30;36.38;82066.25;5105954;28;20197;-49
2023/08/30 10:17:54;;;;;;;10.10;9.32;;;;;;;-144.30;37.70;82276.78;5111680;28;20190;-50
2023/08/30 10:23:25;;;;;;;14.13;10.98;;;;;;;-144.30;39.91;82529.03;5110367;28;20206;-54
2023/08/30 10:26:01;;;;;;;14.60;11.68;;;;;;;-144.30;40.77;82610.47;5111340;28;20213;-54
2023/08/30 10:28:36;;;;;;;13.32;11.38;;;;;;;-144.30;40.68;82574.72;5111293;28;20201;-54
2023/08/30 10:31:06;;;;;;;13.77;10.60;;;;;;;-144.30;40.31;82525.06;5111722;28;20217;-54
2023/08/30 10:33:50;;;;;;;13.70;11.60;;;;;;;-144.30;39.76;82459.50;5111416;28;20306;-48
2023/08/30 10:36:25;;;;;;;12.25;11.13;;;;;;;-144.30;40.61;82525.06;5111363;28;20198;-48
2023/08/30 10:38:59;;;;;;;13.95;11.35;;;;;;;-144.30;40.44;82487.31;5111231;28;20228;-54
2023/08/30 10:41:29;;;;;;;14.07;12.13;;;;;;;-144.30;40.25;82507.19;5111314;28;20190;-54
2023/08/30 10:44:04;;;;;;;14.43;12.18;;;;;;;-144.30;40.45;82505.19;5111018;28;20586;-54
2023/08/30 10:46:37;;;;;;;12.52;11.30;;;;;;;-144.30;40.33;82538.97;5111206;28;20201;-54
2023/08/30 10:49:16;;;;;;;13.23;11.73;;;;;;;-144.30;39.44;82527.03;5111190;28;20230;-50
2023/08/30 10:51:47;;;;;;;14.00;12.38;;;;;;;-144.30;40.14;82535.00;5110832;28;20627;-54
2023/08/30 10:54:21;;;;;;;13.93;12.63;;;;;;;-144.30;40.41;82536.97;5111090;28;20194;-54
2023/08/30 10:57:01;;;;;;;13.40;12.05;;;;;;;-144.30;40.58;82523.06;5111137;28;20213;-53
2023/08/30 10:59:34;;;;;;;14.25;12.82;;;;;;;-144.30;40.43;82509.16;5110673;28;20198;-54
2023/08/30 11:02:08;;;;;;;14.38;12.32;;;;;;;-144.30;40.20;82513.13;5110641;28;20191;-54
2023/08/30 11:04:43;;;;;;;14.13;12.77;;;;;;;-144.30;40.83;82570.75;5109964;28;20220;-54
2023/08/30 11:07:17;;;;;;;19.58;13.57;;;;;;;-144.30;40.96;82574.72;5110857;28;20198;-53
2023/08/30 11:09:51;;;;;;;18.00;14.65;;;;;;;-144.30;42.12;82580.66;5110189;28;20249;-54
2023/08/30 11:12:25;;;;;;;14.95;13.45;;;;;;;-144.30;42.83;82586.63;5110006;28;20775;-54
2023/08/30 11:15:01;;;;;;;17.70;13.80;;;;;;;-144.30;42.98;82687.94;5109616;28;20226;-53
2023/08/30 11:17:32;;;;;;;14.90;13.43;;;;;;;-144.30;42.69;82662.09;5110601;28;20244;-54
2023/08/30 11:20:14;;;;;;;15.18;13.70;;;;;;;-144.30;43.05;82646.22;5110283;28;20234;-55
2023/08/30 11:22:51;;;;;;;15.15;13.50;;;;;;;-144.30;43.06;82650.19;5110232;28;20206;-54
2023/08/30 11:25:24;;;;;;;25.27;14.80;;;;;;;-144.30;43.43;82652.19;5108906;28;20209;-53
2023/08/30 11:28:11;;;;;;;18.85;13.68;;;;;;;-144.30;43.12;82628.34;5110140;28;20230;-54
2023/08/30 11:30:44;;;;;;;16.23;13.25;;;;;;;-144.30;43.25;82614.44;5110288;28;20201;-54
2023/08/30 11:33:14;;;;;;;14.20;12.75;;;;;;;-144.30;42.49;82634.31;5110250;28;20664;-51
2023/08/30 11:35:43;;;;;;;20.05;13.90;;;;;;;-144.30;42.66;82634.31;5110081;28;20202;-54
2023/08/30 11:38:17;;;;;;;23.23;14.95;;;;;;;-144.30;43.03;82650.19;5109808;28;20244;-54
2023/08/30 11:40:51;;;;;;;14.75;13.32;;;;;;;-144.30;43.18;82626.34;5109745;28;20650;-53
2023/08/30 11:43:25;;;;;;;15.63;14.07;;;;;;;-144.30;42.87;82650.19;5110232;28;20221;-55
2023/08/30 11:46:00;;;;;;;14.50;13.07;;;;;;;-144.30;42.79;82662.09;5109551;28;20197;-54
2023/08/30 11:48:33;;;;;;;16.50;12.90;;;;;;;-144.30;42.63;82614.44;5110260;28;20204;-54
2023/08/30 11:51:04;;;;;;;17.70;13.55;;;;;;;-144.30;42.68;82566.78;5109880;28;20201;-51
2023/08/30 11:53:36;;;;;;;16.38;14.68;;;;;;;-144.30;42.50;82574.72;5110119;28;20226;-50
2023/08/30 11:56:09;;;;;;;18.13;14.00;;;;;;;-144.30;42.56;82572.72;5109924;28;20191;-51
2023/08/30 11:58:41;;;;;;;15.80;14.20;;;;;;;-144.30;42.55;82574.72;5110139;28;20194;-51
2023/08/30 12:01:10;;;;;;;15.38;13.80;;;;;;;-144.30;43.11;82604.50;5110077;28;20194;-57
2023/08/30 12:03:40;;;;;;;21.38;14.57;;;;;;;-144.30;43.14;82574.72;5109684;28;20194;-54
2023/08/30 12:06:13;;;;;;;15.50;14.02;;;;;;;-144.30;42.71;82517.09;5109945;28;20203;-55
2023/08/30 12:08:42;;;;;;;15.02;13.63;;;;;;;-144.30;42.21;82499.22;5109749;28;20240;-53
2023/08/30 12:11:29;;;;;;;15.90;14.45;;;;;;;-144.30;42.20;82479.38;5109334;28;20230;-54
2023/08/30 12:14:07;;;;;;;22.33;14.93;;;;;;;-144.30;42.42;82519.09;5110055;28;20639;-50
2023/08/30 12:16:36;;;;;;;17.27;13.77;;;;;;;-144.30;41.96;82552.88;5104612;28;20213;-50
2023/08/30 12:19:12;;;;;;;16.23;14.52;;;;;;;-144.30;42.35;82531.00;5091024;28;20202;-50
2023/08/30 12:21:43;;;;;;;16.50;14.27;;;;;;;-144.30;42.23;82550.88;5101259;28;20206;-50
2023/08/30 12:24:14;;;;;;;18.95;14.90;;;;;;;-144.30;42.05;82511.16;5102029;28;20195;-54
2023/08/30 12:26:49;;;;;;;15.90;14.43;;;;;;;-144.30;42.15;82574.72;5098558;28;20194;-55
2023/08/30 12:29:18;;;;;;;16.67;15.07;;;;;;;-144.30;42.00;82576.69;5101942;28;20199;-50
2023/08/30 12:31:48;;;;;;;18.42;14.32;;;;;;;-144.30;42.37;82560.81;5099691;28;20210;-51
2023/08/30 12:34:20;;;;;;;16.60;15.05;;;;;;;-144.30;41.76;82568.75;5100587;28;20679;-54
2023/08/30 12:36:50;;;;;;;21.27;15.43;;;;;;;-144.30;41.20;82562.78;5100490;28;20187;-55
2023/08/30 12:39:18;;;;;;;17.95;15.57;;;;;;;-144.30;40.85;82590.59;5109805;28;20214;-54
2023/08/30 12:41:49;;;;;;;16.77;15.18;;;;;;;-144.30;41.43;82578.69;5109225;28;20199;-50
2023/08/30 12:44:20;;;;;;;22.77;15.00;;;;;;;-144.30;41.60;82594.56;5109620;28;20199;-50
2023/08/30 12:46:47;;;;;;;17.08;14.43;;;;;;;-144.30;41.39;82600.53;5108795;28;20209;-49
2023/08/30 12:49:18;;;;;;;16.30;14.75;;;;;;;-144.30;41.71;82598.56;5109558;28;20536;-49
2023/08/30 12:51:49;;;;;;;18.02;15.98;;;;;;;-144.30;41.53;82584.66;5112423;28;20206;-49
2023/08/30 12:54:21;;;;;;;18.27;16.35;;;;;;;-144.30;41.33;82600.53;5113645;28;20241;-50
2023/08/30 12:56:54;;;;;;;33.10;21.92;;;;;;;-144.30;41.42;82600.53;5113505;28;20277;-51
2023/08/30 12:59:27;;;;;;;32.65;22.42;;;;;;;-144.30;41.84;82650.19;5113390;28;20589;-53
2023/08/30 13:02:03;;;;;;;17.10;15.43;;;;;;;-144.30;41.56;82642.25;5099954;28;20679;-51
2023/08/30 13:04:34;;;;;;;21.77;14.50;;;;;;;-144.30;41.76;82666.09;5092948;28;20577;-50
2023/08/30 13:07:04;;;;;;;18.95;14.50;;;;;;;-144.30;41.68;82654.16;5092649;28;20195;-51
2023/08/30 13:09:33;;;;;;;15.25;13.75;;;;;;;-144.30;41.56;82598.56;5105427;28;20235;-48
2023/08/30 13:12:06;;;;;;;19.20;15.18;;;;;;;-144.30;41.39;82634.31;5101140;28;20247;-50
2023/08/30 13:14:35;;;;;;;15.30;13.77;;;;;;;-144.30;42.00;82592.59;5102590;28;20207;-50
2023/08/30 13:17:05;;;;;;;16.45;14.77;;;;;;;-144.30;41.87;82612.44;5107966;28;20666;-49
2023/08/30 13:19:36;;;;;;;15.82;13.68;;;;;;;-144.30;41.11;82594.56;5113093;28;20209;-49
2023/08/30 13:22:07;;;;;;;14.38;12.98;;;;;;;-144.30;40.34;82586.63;5112383;28;20252;-49
2023/08/30 13:24:34;;;;;;;14.88;13.43;;;;;;;-144.30;40.59;82614.44;5112910;28;20259;-48
2023/08/30 13:27:09;;;;;;;13.82;12.52;;;;;;;-144.30;40.82;82596.56;5112551;28;20201;-50
2023/08/30 13:29:40;;;;;;;15.43;13.32;;;;;;;-144.30;41.04;82632.31;5112637;28;20200;-48
2023/08/30 13:32:13;;;;;;;15.48;13.98;;;;;;;-144.30;40.68;82642.25;5112763;28;20195;-50
2023/08/30 13:34:47;;;;;;;17.33;12.98;;;;;;;-144.30;40.76;82626.34;5112646;28;20644;-50
2023/08/30 13:37:20;;;;;;;14.93;12.38;;;;;;;-144.30;41.09;82558.81;5112369;28;20194;-50
2023/08/30 13:39:56;;;;;;;15.15;13.63;;;;;;;-144.30;40.86;82602.53;5112513;28;20581;-50
2023/08/30 13:42:38;;;;;;;20.95;14.05;;;;;;;-144.30;40.86;82588.63;5112594;28;20284;-51
2023/08/30 13:48:05;;;;;;;17.15;12.50;;;;;;;-144.30;40.43;82594.56;5109227;28;20198;-53
2023/08/30 13:50:36;;;;;;;14.65;13.25;;;;;;;-144.30;41.23;82590.59;5112585;28;20201;-55
2023/08/30 13:53:07;;;;;;;16.63;13.20;;;;;;;-144.30;41.33;82590.59;5112019;28;20190;-55
2023/08/30 13:55:36;;;;;;;16.05;14.40;;;;;;;-144.30;41.16;82598.56;5112228;28;20701;-54
2023/08/30 13:58:08;;;;;;;14.07;12.45;;;;;;;-144.30;40.63;82628.34;5111636;28;20203;-55
2023/08/30 14:00:42;;;;;;;13.40;12.23;;;;;;;-144.30;40.17;82568.75;5112234;28;20795;-55
2023/08/30 14:03:15;;;;;;;15.77;12.50;;;;;;;-144.30;39.92;82523.06;5110458;28;20197;-50
2023/08/30 14:05:46;;;;;;;17.35;13.32;;;;;;;-144.30;40.58;82562.78;5111896;28;20194;-51
2023/08/30 14:08:16;;;;;;;16.42;13.05;;;;;;;-144.30;40.70;82542.94;5111456;28;20203;-51
2023/08/30 14:10:49;;;;;;;22.60;19.10;;;;;;;-144.30;41.04;82535.00;5109788;28;20722;-50
2023/08/30 14:13:25;;;;;;;19.95;15.85;;;;;;;-144.30;41.24;82523.06;5111476;28;20721;-51
2023/08/30 14:15:53;;;;;;;22.77;14.70;;;;;;;-144.30;41.13;82505.19;5111644;28;20217;-54
2023/08/30 14:18:25;;;;;;;16.38;14.82;;;;;;;-144.30;40.76;82481.34;5111840;28;20328;-50
2023/08/30 14:21:01;;;;;;;20.95;16.13;;;;;;;-144.30;40.74;82483.34;5111640;28;20194;-50
2023/08/30 14:23:54;;;;;;;;;;;;;;;;;;;;;
2023/08/30 14:26:22;;;;;;;20.08;14.82;;;;;;;-144.30;40.70;82519.09;5099123;28;20650;-54
2023/08/30 14:28:59;;;;;;;21.63;15.93;;;;;;;-144.30;40.50;82523.06;5104808;28;20226;-49
2023/08/30 14:31:27;;;;;;;15.85;13.85;;;;;;;-144.30;40.54;82517.09;5107366;28;21001;-54
2023/08/30 14:34:00;;;;;;;15.38;13.90;;;;;;;-144.30;40.02;82483.34;5091043;28;20926;-49
2023/08/30 14:36:32;;;;;;;20.30;14.65;;;;;;;-144.30;40.52;82495.25;5090533;28;20602;-50
2023/08/30 14:39:01;;;;;;;15.77;14.05;;;;;;;-144.30;40.67;82511.16;5090971;28;20207;-50
2023/08/30 14:41:32;;;;;;;20.73;16.63;;;;;;;-144.30;40.48;82491.28;5099399;28;20662;-50
2023/08/30 14:44:21;;;;;;;19.50;15.55;;;;;;;-144.30;40.11;82531.00;5093805;28;20655;-49
2023/08/30 14:47:22;;;;;;;;;;;;;;;;;;;;;
2023/08/30 14:49:53;;;;;;;25.17;17.55;;;;;;;-144.30;40.72;82546.91;5090179;28;20209;-54
2023/08/30 14:52:26;;;;;;;19.25;15.68;;;;;;;-144.30;40.07;82517.09;5096002;28;20203;-50
2023/08/30 14:54:58;;;;;;;20.55;16.42;;;;;;;-144.30;40.03;82538.97;5090897;28;20253;-50